Farmington, MO (63640)

3:03 PM CDT on April 25, 2017 (GMT -0500)
Farmington Regional | | Change Station

Elev 945 ft 37.76 °N, 90.43 °W | Updated 7 minutes ago

Clear
Clear
76 °F
Feels Like 76 °F
N
23
Wind Variable Wind from SSE
Gusts 28 mph

Today
High -- | Low -- °F
--% Chance of Precip.
Yesterday
High -- | Low -- °F
Precip. -- in
Pressure 29.55 in
Visibility 10.0 miles
Clouds Clear
Dew Point 52 °F
Humidity 43%
Rainfall 0.00 in
Snow Depth Not available.
6:12 AM 7:46 PM
Waning Crescent, 1% visible
METAR KFAM 251956Z AUTO 15020G24KT 10SM CLR 24/11 A2957 RMK AO2 PK WND 15026/1857 SLP005 T02440111
Pressure 29.55 in
Visibility 10.0 miles
Clouds Clear
Dew Point 52 °F
Humidity 43%
Rainfall 0.00 in
Snow Depth Not available.
6:12 AM 7:46 PM
Waning Crescent, 1% visible
METAR KFAM 251956Z AUTO 15020G24KT 10SM CLR 24/11 A2957 RMK AO2 PK WND 15026/1857 SLP005 T02440111

Get Severe Weather Alerts

Thanks for signing up!

Be on the lookout for a verification email in your inbox.

You'll start receiving the daily forecast at 8 AM.

×

10-Day Weather Forecast

Almanac

Astronomy

Apr. 25, 2017 Rise Set
Actual Time
Civil Twilight
Nautical Twilight
Astronomical Twilight
Moon
Length of Visible Light
Length of Day
Tomorrow will be .
, % of the Moon is Illuminated

Today's Extremes

State Highs State Lows

Community

WunderPhotos

WunderBlog® & News

Nearby

Air Quality

  Air Quality AQ Index Pollutant
Not available.

Snow Depth

Station Depth Elevation

Earthquake Activity

City Distance Mag. Time & Date
Minimum magnitude displayed is 2.5.

Coastal Water Temperatures

Place Temperature

Stations

Nearby Weather Stations

Station Location Temp. Windchill Dew Point Humidity Wind Precip. Elev Updated Type
                   

Watches & Warnings

There are currently no watches in effect.